Blackheath, United Kingdom
Current Conditions -  °F | °C
As of 5:20 AM on Sunday 26 Oct 2014 (Local Time) from EGLC Reporting Station
Clear Clear  
Wind Chill: 55°   Ceiling: Unl
Heat Index: 55°   Visibility: 6mi
Dew Point: 46°   Wind: 9mph
Humidity: 72%   Direction: 230°SW
Pressure: 30.15"   Gusts: NA
Location:  51.46°N, 0.01°E
Report Text: EGLC 260420Z AUTO 23008KT 9999 NCD 13/08 Q1021
Loading
Personal Weather Stations






























Interactive Weather Map New forecast layout! Learn more

10-Day Weather Forecast

Advertisements
Track Severe Weather on mobile